PWSweather.com
Personal Weather Stations
Station Observations
KNCCHINA3
Red Tractor Trail, China Grove, NC 28023

Red Tractor TrailChina Grove, NC 28023

Lat: 35.59751, Lon: -80.60201

Elevation: 800

Station Type: Oregon Scientific WMR 968

http://www.joesweathergarage.com

High Low Average
Temperature 84.4°F29.1°C 52.6°F11.4°C 67.3°F19.6°C
Dew Point 56.6°F13.7°C 42.1°F5.6°C 50.6°F10.3°C
Winds 14.0 mph 22.5 kmh Calm Calm 5.0 mph S8.0 kmh S
Wind Gusts 20.2 mph32.5 kmh -- 8.0 mph12.9 kmh
Humidity 93% 34% 59%
Pressure 30.18 in1022.0 mb 30.00 in1015.9 mb -
Precipitation 0.00 in0.0 mm - -
Hour Temp Dew Point Humidity Winds Wind Gusts Pressure Precip Precip Rate Daily Precip Total
12:04 AM 59.6°F15.3°C 40.8°F4.9°C 50% 5.2 mph S8.4 kmh S 7.2 mph11.6 kmh 30.06 in1017.9 mb 0.00 in0.0 mm 0.00 in0.0 mm 0.00 in0.0 mm
12:09 AM 59.6°F15.3°C 40.8°F4.9°C 50% 4.4 mph S7.1 kmh S 5.8 mph9.3 kmh 30.09 in1019.0 mb 0.00 in0.0 mm 0.00 in0.0 mm 0.00 in0.0 mm
12:15 AM 58.7°F14.8°C 40.0°F4.4°C 50% 2.5 mph S4.0 kmh S 5.4 mph8.7 kmh 30.09 in1019.0 mb 0.00 in0.0 mm 0.00 in0.0 mm 0.00 in0.0 mm
12:20 AM 58.2°F14.6°C 40.1°F4.5°C 51% 2.4 mph S3.9 kmh S 4.0 mph6.4 kmh 30.09 in1019.0 mb 0.00 in0.0 mm 0.00 in0.0 mm 0.00 in0.0 mm
12:26 AM 57.8°F14.3°C 40.2°F4.6°C 52% 2.6 mph S4.2 kmh S 4.0 mph6.4 kmh 30.09 in1019.0 mb 0.00 in0.0 mm 0.00 in0.0 mm 0.00 in0.0 mm
12:31 AM 58.0°F14.4°C 40.9°F4.9°C 53% 4.8 mph S7.7 kmh S 5.4 mph8.7 kmh 30.09 in1019.0 mb 0.00 in0.0 mm 0.00 in0.0 mm 0.00 in0.0 mm
12:36 AM 58.0°F14.4°C 41.4°F5.2°C 54% 4.1 mph S6.6 kmh S 5.8 mph9.3 kmh 30.09 in1019.0 mb 0.00 in0.0 mm 0.00 in0.0 mm 0.00 in0.0 mm
12:41 AM 58.0°F14.4°C 41.4°F5.2°C 54% 5.5 mph S8.9 kmh S 6.2 mph10.0 kmh 30.09 in1019.0 mb 0.00 in0.0 mm 0.00 in0.0 mm 0.00 in0.0 mm
12:47 AM 58.4°F14.7°C 41.8°F5.4°C 54% 5.2 mph S8.4 kmh S 7.2 mph11.6 kmh 30.09 in1019.0 mb 0.00 in0.0 mm 0.00 in0.0 mm 0.00 in0.0 mm
12:53 AM 58.4°F14.7°C 41.8°F5.4°C 54% 5.1 mph S8.2 kmh S 7.2 mph11.6 kmh 30.09 in1019.0 mb 0.00 in0.0 mm 0.00 in0.0 mm 0.00 in0.0 mm
12:57 AM 58.4°F14.7°C 41.8°F5.4°C 54% 5.2 mph S8.4 kmh S 6.2 mph10.0 kmh 30.09 in1019.0 mb 0.00 in0.0 mm 0.00 in0.0 mm 0.00 in0.0 mm
01:03 AM 58.2°F14.6°C 42.1°F5.6°C 55% 5.2 mph S8.4 kmh S 6.8 mph10.9 kmh 30.09 in1019.0 mb 0.00 in0.0 mm 0.00 in0.0 mm 0.00 in0.0 mm
01:08 AM 58.2°F14.6°C 42.1°F5.6°C 55% 5.5 mph S8.9 kmh S 8.6 mph13.8 kmh 30.12 in1020.0 mb 0.00 in0.0 mm 0.00 in0.0 mm 0.00 in0.0 mm
01:12 AM 58.2°F14.6°C 42.1°F5.6°C 55% 6.1 mph SSW9.8 kmh SSW 8.6 mph13.8 kmh 30.12 in1020.0 mb 0.00 in0.0 mm 0.00 in0.0 mm 0.00 in0.0 mm
01:18 AM 58.2°F14.6°C 42.6°F5.9°C 56% 5.2 mph SSW8.4 kmh SSW 8.0 mph12.9 kmh 30.12 in1020.0 mb 0.00 in0.0 mm 0.00 in0.0 mm 0.00 in0.0 mm
01:23 AM 58.0°F14.4°C 42.4°F5.8°C 56% 5.2 mph SSW8.4 kmh SSW 8.0 mph12.9 kmh 30.06 in1017.9 mb 0.00 in0.0 mm 0.00 in0.0 mm 0.00 in0.0 mm
01:28 AM 58.0°F14.4°C 42.4°F5.8°C 56% 4.8 mph SSW7.7 kmh SSW 8.6 mph13.8 kmh 30.06 in1017.9 mb 0.00 in0.0 mm 0.00 in0.0 mm 0.00 in0.0 mm
01:33 AM 58.0°F14.4°C 42.8°F6.0°C 57% 5.0 mph SSW8.0 kmh SSW 8.6 mph13.8 kmh 30.06 in1017.9 mb 0.00 in0.0 mm 0.00 in0.0 mm 0.00 in0.0 mm
01:38 AM 58.0°F14.4°C 42.8°F6.0°C 57% 6.1 mph SSW9.8 kmh SSW 7.6 mph12.2 kmh 30.09 in1019.0 mb 0.00 in0.0 mm 0.00 in0.0 mm 0.00 in0.0 mm
01:43 AM 58.0°F14.4°C 42.8°F6.0°C 57% 4.6 mph SSW7.4 kmh SSW 8.0 mph12.9 kmh 30.09 in1019.0 mb 0.00 in0.0 mm 0.00 in0.0 mm 0.00 in0.0 mm
01:48 AM 57.8°F14.3°C 42.6°F5.9°C 57% 4.2 mph S6.8 kmh S 8.0 mph12.9 kmh 30.09 in1019.0 mb 0.00 in0.0 mm 0.00 in0.0 mm 0.00 in0.0 mm
01:53 AM 57.8°F14.3°C 42.6°F5.9°C 57% 2.9 mph SSW4.7 kmh SSW 5.4 mph8.7 kmh 30.09 in1019.0 mb 0.00 in0.0 mm 0.00 in0.0 mm 0.00 in0.0 mm
01:59 AM 57.5°F14.2°C 42.8°F6.0°C 58% 4.0 mph SSW6.4 kmh SSW 5.8 mph9.3 kmh 30.09 in1019.0 mb 0.00 in0.0 mm 0.00 in0.0 mm 0.00 in0.0 mm
02:04 AM 57.3°F14.1°C 42.6°F5.9°C 58% 4.2 mph S6.8 kmh S 5.8 mph9.3 kmh 30.09 in1019.0 mb 0.00 in0.0 mm 0.00 in0.0 mm 0.00 in0.0 mm
02:09 AM 57.3°F14.1°C 43.1°F6.2°C 59% 4.1 mph SSW6.6 kmh SSW 6.8 mph10.9 kmh 30.09 in1019.0 mb 0.00 in0.0 mm 0.00 in0.0 mm 0.00 in0.0 mm
02:14 AM 56.7°F13.7°C 42.5°F5.8°C 59% 3.4 mph S5.5 kmh S 6.8 mph10.9 kmh 30.09 in1019.0 mb 0.00 in0.0 mm 0.00 in0.0 mm 0.00 in0.0 mm
02:19 AM 56.7°F13.7°C 43.4°F6.3°C 61% 3.0 mph S4.8 kmh S 5.0 mph8.0 kmh 30.09 in1019.0 mb 0.00 in0.0 mm 0.00 in0.0 mm 0.00 in0.0 mm
02:24 AM 56.4°F13.6°C 43.1°F6.2°C 61% 3.5 mph S5.6 kmh S 5.0 mph8.0 kmh 30.09 in1019.0 mb 0.00 in0.0 mm 0.00 in0.0 mm 0.00 in0.0 mm
02:30 AM 56.0°F13.3°C 43.2°F6.2°C 62% 2.7 mph S4.3 kmh S 5.0 mph8.0 kmh 30.09 in1019.0 mb 0.00 in0.0 mm 0.00 in0.0 mm 0.00 in0.0 mm
02:35 AM 55.7°F13.2°C 42.9°F6.1°C 62% 2.0 mph S3.2 kmh S 4.0 mph6.4 kmh 30.09 in1019.0 mb 0.00 in0.0 mm 0.00 in0.0 mm 0.00 in0.0 mm
02:40 AM 55.8°F13.2°C 44.2°F6.8°C 65% 4.0 mph S6.4 kmh S 5.4 mph8.7 kmh 30.09 in1019.0 mb 0.00 in0.0 mm 0.00 in0.0 mm 0.00 in0.0 mm
02:45 AM 55.8°F13.2°C 44.2°F6.8°C 65% 3.5 mph SSW5.6 kmh SSW 5.4 mph8.7 kmh 30.09 in1019.0 mb 0.00 in0.0 mm 0.00 in0.0 mm 0.00 in0.0 mm
02:50 AM 55.5°F13.1°C 43.9°F6.6°C 65% 2.6 mph SSE4.2 kmh SSE 5.4 mph8.7 kmh 30.09 in1019.0 mb 0.00 in0.0 mm 0.00 in0.0 mm 0.00 in0.0 mm
02:55 AM 54.9°F12.7°C 43.4°F6.3°C 65% 2.3 mph SSE3.7 kmh SSE 5.4 mph8.7 kmh 30.09 in1019.0 mb 0.00 in0.0 mm 0.00 in0.0 mm 0.00 in0.0 mm
03:00 AM 55.1°F12.8°C 44.4°F6.9°C 67% 2.6 mph SSE4.2 kmh SSE 5.0 mph8.0 kmh 30.09 in1019.0 mb 0.00 in0.0 mm 0.00 in0.0 mm 0.00 in0.0 mm
03:05 AM 54.8°F12.7°C 44.1°F6.7°C 67% Calm Calm 5.0 mph8.0 kmh 30.09 in1019.0 mb 0.00 in0.0 mm 0.00 in0.0 mm 0.00 in0.0 mm
03:11 AM 54.6°F12.6°C 44.7°F7.1°C 69% 2.7 mph S4.3 kmh S 4.4 mph7.1 kmh 30.09 in1019.0 mb 0.00 in0.0 mm 0.00 in0.0 mm 0.00 in0.0 mm
03:16 AM 54.6°F12.6°C 45.0°F7.2°C 70% 2.7 mph SSW4.3 kmh SSW 4.4 mph7.1 kmh 30.09 in1019.0 mb 0.00 in0.0 mm 0.00 in0.0 mm 0.00 in0.0 mm
03:21 AM 54.6°F12.6°C 45.4°F7.4°C 71% 2.8 mph SSW4.5 kmh SSW 6.8 mph10.9 kmh 30.09 in1019.0 mb 0.00 in0.0 mm 0.00 in0.0 mm 0.00 in0.0 mm
03:26 AM 54.2°F12.3°C 44.6°F7.0°C 70% 2.3 mph S3.7 kmh S 6.8 mph10.9 kmh 30.09 in1019.0 mb 0.00 in0.0 mm 0.00 in0.0 mm 0.00 in0.0 mm
03:31 AM 54.4°F12.4°C 45.6°F7.6°C 72% 3.7 mph S6.0 kmh S 4.4 mph7.1 kmh 30.09 in1019.0 mb 0.00 in0.0 mm 0.00 in0.0 mm 0.00 in0.0 mm
03:36 AM 54.2°F12.3°C 45.4°F7.4°C 72% 3.5 mph SE5.6 kmh SE 4.4 mph7.1 kmh 30.09 in1019.0 mb 0.00 in0.0 mm 0.00 in0.0 mm 0.00 in0.0 mm
03:41 AM 54.2°F12.3°C 45.4°F7.4°C 72% 3.2 mph SSE5.1 kmh SSE 4.0 mph6.4 kmh 30.09 in1019.0 mb 0.00 in0.0 mm 0.00 in0.0 mm 0.00 in0.0 mm
03:47 AM 54.6°F12.6°C 46.8°F8.2°C 75% 3.6 mph S5.8 kmh S 6.2 mph10.0 kmh 30.09 in1019.0 mb 0.00 in0.0 mm 0.00 in0.0 mm 0.00 in0.0 mm
03:51 AM 54.8°F12.7°C 47.0°F8.3°C 75% 2.8 mph SSW4.5 kmh SSW 6.2 mph10.0 kmh 30.09 in1019.0 mb 0.00 in0.0 mm 0.00 in0.0 mm 0.00 in0.0 mm
03:57 AM 54.9°F12.7°C 47.8°F8.8°C 77% 4.7 mph SSW7.6 kmh SSW 6.2 mph10.0 kmh 30.09 in1019.0 mb 0.00 in0.0 mm 0.00 in0.0 mm 0.00 in0.0 mm
04:02 AM 55.5°F13.1°C 48.4°F9.1°C 77% 4.5 mph SSW7.2 kmh SSW 6.8 mph10.9 kmh 30.09 in1019.0 mb 0.00 in0.0 mm 0.00 in0.0 mm 0.00 in0.0 mm
04:07 AM 55.7°F13.2°C 48.9°F9.4°C 78% 5.3 mph S8.5 kmh S 9.4 mph15.1 kmh 30.09 in1019.0 mb 0.00 in0.0 mm 0.00 in0.0 mm 0.00 in0.0 mm
04:12 AM 56.0°F13.3°C 49.2°F9.6°C 78% 5.1 mph SSW8.2 kmh SSW 9.4 mph15.1 kmh 30.09 in1019.0 mb 0.00 in0.0 mm 0.00 in0.0 mm 0.00 in0.0 mm
04:17 AM 56.0°F13.3°C 48.9°F9.4°C 77% 4.7 mph S7.6 kmh S 9.4 mph15.1 kmh 30.09 in1019.0 mb 0.00 in0.0 mm 0.00 in0.0 mm 0.00 in0.0 mm
04:22 AM 56.0°F13.3°C 49.2°F9.6°C 78% 5.1 mph SSW8.2 kmh SSW 7.6 mph12.2 kmh 30.09 in1019.0 mb 0.00 in0.0 mm 0.00 in0.0 mm 0.00 in0.0 mm
04:27 AM 55.8°F13.2°C 49.0°F9.4°C 78% 4.6 mph SSW7.4 kmh SSW 7.6 mph12.2 kmh 30.09 in1019.0 mb 0.00 in0.0 mm 0.00 in0.0 mm 0.00 in0.0 mm
04:32 AM 56.0°F13.3°C 49.5°F9.7°C 79% 4.4 mph SW7.1 kmh SW 7.2 mph11.6 kmh 30.09 in1019.0 mb 0.00 in0.0 mm 0.00 in0.0 mm 0.00 in0.0 mm
04:37 AM 55.8°F13.2°C 49.3°F9.6°C 79% 4.9 mph SW7.9 kmh SW 7.2 mph11.6 kmh 30.09 in1019.0 mb 0.00 in0.0 mm 0.00 in0.0 mm 0.00 in0.0 mm
04:42 AM 56.0°F13.3°C 49.9°F9.9°C 80% 4.3 mph SW6.9 kmh SW 8.0 mph12.9 kmh 30.09 in1019.0 mb 0.00 in0.0 mm 0.00 in0.0 mm 0.00 in0.0 mm
04:47 AM 55.8°F13.2°C 49.7°F9.8°C 80% 4.1 mph SSW6.6 kmh SSW 8.0 mph12.9 kmh 30.09 in1019.0 mb 0.00 in0.0 mm 0.00 in0.0 mm 0.00 in0.0 mm
04:52 AM 55.8°F13.2°C 49.7°F9.8°C 80% 3.6 mph S5.8 kmh S 7.2 mph11.6 kmh 30.09 in1019.0 mb 0.00 in0.0 mm 0.00 in0.0 mm 0.00 in0.0 mm
04:57 AM 55.8°F13.2°C 50.0°F10.0°C 81% 4.4 mph SSW7.1 kmh SSW 7.2 mph11.6 kmh 30.09 in1019.0 mb 0.00 in0.0 mm 0.00 in0.0 mm 0.00 in0.0 mm
05:02 AM 55.8°F13.2°C 50.0°F10.0°C 81% 4.2 mph SSW6.8 kmh SSW 7.2 mph11.6 kmh 30.09 in1019.0 mb 0.00 in0.0 mm 0.00 in0.0 mm 0.00 in0.0 mm
05:07 AM 55.7°F13.2°C 50.2°F10.1°C 82% 3.5 mph SW5.6 kmh SW 6.8 mph10.9 kmh 30.09 in1019.0 mb 0.00 in0.0 mm 0.00 in0.0 mm 0.00 in0.0 mm
05:14 AM 55.3°F12.9°C 49.8°F9.9°C 82% 3.7 mph S6.0 kmh S 5.8 mph9.3 kmh 30.09 in1019.0 mb 0.00 in0.0 mm 0.00 in0.0 mm 0.00 in0.0 mm
05:19 AM 55.3°F12.9°C 49.8°F9.9°C 82% 3.4 mph SSW5.5 kmh SSW 6.2 mph10.0 kmh 30.09 in1019.0 mb 0.00 in0.0 mm 0.00 in0.0 mm 0.00 in0.0 mm
05:24 AM 55.1°F12.8°C 50.3°F10.2°C 84% 4.3 mph SW6.9 kmh SW 6.2 mph10.0 kmh 30.12 in1020.0 mb 0.00 in0.0 mm 0.00 in0.0 mm 0.00 in0.0 mm
05:29 AM 55.1°F12.8°C 50.3°F10.2°C 84% 3.0 mph SSW4.8 kmh SSW 5.8 mph9.3 kmh 30.12 in1020.0 mb 0.00 in0.0 mm 0.00 in0.0 mm 0.00 in0.0 mm
05:34 AM 54.9°F12.7°C 50.1°F10.1°C 84% 3.6 mph SW5.8 kmh SW 7.2 mph11.6 kmh 30.12 in1020.0 mb 0.00 in0.0 mm 0.00 in0.0 mm 0.00 in0.0 mm
05:39 AM 55.1°F12.8°C 50.6°F10.3°C 85% 4.7 mph SSW7.6 kmh SSW 7.2 mph11.6 kmh 30.06 in1017.9 mb 0.00 in0.0 mm 0.00 in0.0 mm 0.00 in0.0 mm
05:44 AM 54.9°F12.7°C 50.4°F10.2°C 85% 3.7 mph SSW6.0 kmh SSW 6.2 mph10.0 kmh 30.06 in1017.9 mb 0.00 in0.0 mm 0.00 in0.0 mm 0.00 in0.0 mm
05:49 AM 54.8°F12.7°C 50.6°F10.3°C 86% 3.9 mph SSW6.3 kmh SSW 6.2 mph10.0 kmh 30.06 in1017.9 mb 0.00 in0.0 mm 0.00 in0.0 mm 0.00 in0.0 mm
05:54 AM 54.4°F12.4°C 49.9°F9.9°C 85% 2.9 mph S4.7 kmh S 5.4 mph8.7 kmh 30.09 in1019.0 mb 0.00 in0.0 mm 0.00 in0.0 mm 0.00 in0.0 mm
05:59 AM 54.2°F12.3°C 49.7°F9.8°C 85% 2.8 mph S4.5 kmh S 5.4 mph8.7 kmh 30.09 in1019.0 mb 0.00 in0.0 mm 0.00 in0.0 mm 0.00 in0.0 mm
06:05 AM 54.0°F12.2°C 50.1°F10.1°C 87% 3.6 mph S5.8 kmh S 5.4 mph8.7 kmh 30.09 in1019.0 mb 0.00 in0.0 mm 0.00 in0.0 mm 0.00 in0.0 mm
06:10 AM 53.9°F12.2°C 50.0°F10.0°C 87% 3.0 mph S4.8 kmh S 5.0 mph8.0 kmh 30.06 in1017.9 mb 0.00 in0.0 mm 0.00 in0.0 mm 0.00 in0.0 mm
06:15 AM 53.7°F12.1°C 50.1°F10.1°C 88% 3.3 mph S5.3 kmh S 5.0 mph8.0 kmh 30.06 in1017.9 mb 0.00 in0.0 mm 0.00 in0.0 mm 0.00 in0.0 mm
06:20 AM 53.7°F12.1°C 50.4°F10.2°C 89% 3.2 mph SSW5.1 kmh SSW 5.4 mph8.7 kmh 30.06 in1017.9 mb 0.00 in0.0 mm 0.00 in0.0 mm 0.00 in0.0 mm
06:26 AM 53.7°F12.1°C 50.7°F10.4°C 90% 3.5 mph SSW5.6 kmh SSW 5.4 mph8.7 kmh 30.09 in1019.0 mb 0.00 in0.0 mm 0.00 in0.0 mm 0.00 in0.0 mm
06:31 AM 53.3°F11.8°C 50.0°F10.0°C 89% 2.5 mph S4.0 kmh S 5.4 mph8.7 kmh 30.09 in1019.0 mb 0.00 in0.0 mm 0.00 in0.0 mm 0.00 in0.0 mm
06:36 AM 53.1°F11.7°C 50.1°F10.1°C 90% 3.4 mph S5.5 kmh S 4.0 mph6.4 kmh 30.09 in1019.0 mb 0.00 in0.0 mm 0.00 in0.0 mm 0.00 in0.0 mm
06:41 AM 53.0°F11.7°C 50.0°F10.0°C 90% 2.7 mph SSW4.3 kmh SSW 4.4 mph7.1 kmh 30.09 in1019.0 mb 0.00 in0.0 mm 0.00 in0.0 mm 0.00 in0.0 mm
06:46 AM 53.0°F11.7°C 50.3°F10.2°C 91% 2.6 mph SSW4.2 kmh SSW 4.4 mph7.1 kmh 30.09 in1019.0 mb 0.00 in0.0 mm 0.00 in0.0 mm 0.00 in0.0 mm
06:51 AM 53.0°F11.7°C 50.3°F10.2°C 91% 2.2 mph SSE3.5 kmh SSE 4.4 mph7.1 kmh 30.09 in1019.0 mb 0.00 in0.0 mm 0.00 in0.0 mm 0.00 in0.0 mm
06:56 AM 52.6°F11.4°C 49.9°F9.9°C 91% 2.8 mph S4.5 kmh S 4.4 mph7.1 kmh 30.09 in1019.0 mb 0.00 in0.0 mm 0.00 in0.0 mm 0.00 in0.0 mm
07:01 AM 52.6°F11.4°C 50.2°F10.1°C 92% 2.5 mph S4.0 kmh S 4.4 mph7.1 kmh 30.09 in1019.0 mb 0.00 in0.0 mm 0.00 in0.0 mm 0.00 in0.0 mm
07:06 AM 52.8°F11.6°C 50.7°F10.4°C 93% 2.9 mph SSW4.7 kmh SSW 4.0 mph6.4 kmh 30.12 in1020.0 mb 0.00 in0.0 mm 0.00 in0.0 mm 0.00 in0.0 mm
07:11 AM 52.8°F11.6°C 50.7°F10.4°C 93% 1.9 mph S3.1 kmh S 4.0 mph6.4 kmh 30.12 in1020.0 mb 0.00 in0.0 mm 0.00 in0.0 mm 0.00 in0.0 mm
07:17 AM 52.8°F11.6°C 50.4°F10.2°C 92% Calm Calm 2.6 mph4.2 kmh 30.12 in1020.0 mb 0.00 in0.0 mm 0.00 in0.0 mm 0.00 in0.0 mm
07:22 AM 52.8°F11.6°C 50.4°F10.2°C 92% 2.1 mph S3.4 kmh S 2.2 mph3.5 kmh 30.12 in1020.0 mb 0.00 in0.0 mm 0.00 in0.0 mm 0.00 in0.0 mm
07:28 AM 53.0°F11.7°C 50.6°F10.3°C 92% 1.9 mph S3.1 kmh S 2.2 mph3.5 kmh 30.12 in1020.0 mb 0.00 in0.0 mm 0.00 in0.0 mm 0.00 in0.0 mm
07:33 AM 53.1°F11.7°C 50.7°F10.4°C 92% 2.4 mph S3.9 kmh S 3.2 mph5.1 kmh 30.12 in1020.0 mb 0.00 in0.0 mm 0.00 in0.0 mm 0.00 in0.0 mm
07:39 AM 53.9°F12.2°C 51.8°F11.0°C 93% 2.8 mph S4.5 kmh S 5.4 mph8.7 kmh 30.12 in1020.0 mb 0.00 in0.0 mm 0.00 in0.0 mm 0.00 in0.0 mm
07:44 AM 54.4°F12.4°C 52.3°F11.3°C 93% 2.8 mph SSE4.5 kmh SSE 5.8 mph9.3 kmh 30.12 in1020.0 mb 0.00 in0.0 mm 0.00 in0.0 mm 0.00 in0.0 mm
07:49 AM 54.9°F12.7°C 52.8°F11.6°C 93% 3.0 mph SSE4.8 kmh SSE 5.8 mph9.3 kmh 30.12 in1020.0 mb 0.00 in0.0 mm 0.00 in0.0 mm 0.00 in0.0 mm
07:54 AM 55.5°F13.1°C 53.1°F11.7°C 92% 4.1 mph SSW6.6 kmh SSW 5.4 mph8.7 kmh 30.15 in1021.0 mb 0.00 in0.0 mm 0.00 in0.0 mm 0.00 in0.0 mm
07:59 AM 56.2°F13.4°C 53.8°F12.1°C 92% 4.1 mph S6.6 kmh S 6.2 mph10.0 kmh 30.15 in1021.0 mb 0.00 in0.0 mm 0.00 in0.0 mm 0.00 in0.0 mm
08:04 AM 56.9°F13.8°C 54.2°F12.3°C 91% 4.1 mph SSE6.6 kmh SSE 6.2 mph10.0 kmh 30.15 in1021.0 mb 0.00 in0.0 mm 0.00 in0.0 mm 0.00 in0.0 mm
08:12 AM 57.3°F14.1°C 53.6°F12.0°C 88% 4.0 mph WNW6.4 kmh WNW 12.0 mph19.3 kmh 30.15 in1021.0 mb 0.00 in0.0 mm 0.00 in0.0 mm 0.00 in0.0 mm
08:17 AM 57.8°F14.3°C 53.8°F12.1°C 87% 4.6 mph SSW7.4 kmh SSW 7.2 mph11.6 kmh 30.15 in1021.0 mb 0.00 in0.0 mm 0.00 in0.0 mm 0.00 in0.0 mm
08:22 AM 58.2°F14.6°C 53.9°F12.2°C 86% 5.0 mph SW8.0 kmh SW 8.0 mph12.9 kmh 30.15 in1021.0 mb 0.00 in0.0 mm 0.00 in0.0 mm 0.00 in0.0 mm
08:27 AM 58.2°F14.6°C 53.6°F12.0°C 85% 3.5 mph SSW5.6 kmh SSW 8.0 mph12.9 kmh 30.15 in1021.0 mb 0.00 in0.0 mm 0.00 in0.0 mm 0.00 in0.0 mm
08:32 AM 58.5°F14.7°C 53.6°F12.0°C 84% 4.2 mph SW6.8 kmh SW 8.6 mph13.8 kmh 30.15 in1021.0 mb 0.00 in0.0 mm 0.00 in0.0 mm 0.00 in0.0 mm
08:37 AM 58.7°F14.8°C 53.8°F12.1°C 84% 4.8 mph WNW7.7 kmh WNW 8.6 mph13.8 kmh 30.15 in1021.0 mb 0.00 in0.0 mm 0.00 in0.0 mm 0.00 in0.0 mm
08:42 AM 59.3°F15.2°C 54.0°F12.2°C 83% 5.2 mph WSW8.4 kmh WSW 8.0 mph12.9 kmh 30.15 in1021.0 mb 0.00 in0.0 mm 0.00 in0.0 mm 0.00 in0.0 mm
08:47 AM 59.6°F15.3°C 54.3°F12.4°C 83% 5.4 mph WSW8.7 kmh WSW 8.0 mph12.9 kmh 30.15 in1021.0 mb 0.00 in0.0 mm 0.00 in0.0 mm 0.00 in0.0 mm
08:53 AM 60.2°F15.7°C 54.7°F12.6°C 82% 5.7 mph WSW9.2 kmh WSW 8.0 mph12.9 kmh 30.15 in1021.0 mb 0.00 in0.0 mm 0.00 in0.0 mm 0.00 in0.0 mm
08:58 AM 60.4°F15.8°C 54.6°F12.6°C 81% 5.9 mph WSW9.5 kmh WSW 10.8 mph17.4 kmh 30.15 in1021.0 mb 0.00 in0.0 mm 0.00 in0.0 mm 0.00 in0.0 mm
09:04 AM 61.0°F16.1°C 54.8°F12.7°C 80% 7.2 mph WSW11.6 kmh WSW 10.8 mph17.4 kmh 30.15 in1021.0 mb 0.00 in0.0 mm 0.00 in0.0 mm 0.00 in0.0 mm
09:09 AM 61.3°F16.3°C 55.1°F12.8°C 80% 5.4 mph SW8.7 kmh SW 10.8 mph17.4 kmh 30.15 in1021.0 mb 0.00 in0.0 mm 0.00 in0.0 mm 0.00 in0.0 mm
09:15 AM 61.7°F16.5°C 55.2°F12.9°C 79% 6.8 mph W10.9 kmh W 11.2 mph18.0 kmh 30.15 in1021.0 mb 0.00 in0.0 mm 0.00 in0.0 mm 0.00 in0.0 mm
09:20 AM 62.6°F17.0°C 55.7°F13.2°C 78% 6.8 mph W10.9 kmh W 11.2 mph18.0 kmh 30.15 in1021.0 mb 0.00 in0.0 mm 0.00 in0.0 mm 0.00 in0.0 mm
09:25 AM 63.8°F17.7°C 56.2°F13.4°C 76% 7.4 mph W11.9 kmh W 11.2 mph18.0 kmh 30.15 in1021.0 mb 0.00 in0.0 mm 0.00 in0.0 mm 0.00 in0.0 mm
09:30 AM 65.3°F18.5°C 56.5°F13.6°C 73% 5.4 mph SW8.7 kmh SW 11.2 mph18.0 kmh 30.15 in1021.0 mb 0.00 in0.0 mm 0.00 in0.0 mm 0.00 in0.0 mm
09:36 AM 66.2°F19.0°C 56.6°F13.7°C 71% 7.2 mph WSW11.6 kmh WSW 14.4 mph23.2 kmh 30.15 in1021.0 mb 0.00 in0.0 mm 0.00 in0.0 mm 0.00 in0.0 mm
09:41 AM 66.4°F19.1°C 56.0°F13.3°C 69% 8.7 mph W14.0 kmh W 14.4 mph23.2 kmh 30.15 in1021.0 mb 0.00 in0.0 mm 0.00 in0.0 mm 0.00 in0.0 mm
09:46 AM 66.9°F19.4°C 56.1°F13.4°C 68% 6.5 mph W10.5 kmh W 12.0 mph19.3 kmh 30.15 in1021.0 mb 0.00 in0.0 mm 0.00 in0.0 mm 0.00 in0.0 mm
09:51 AM 67.3°F19.6°C 55.3°F12.9°C 65% 10.4 mph W16.7 kmh W 14.4 mph23.2 kmh 30.15 in1021.0 mb 0.00 in0.0 mm 0.00 in0.0 mm 0.00 in0.0 mm
09:57 AM 67.3°F19.6°C 55.3°F12.9°C 65% 7.4 mph WSW11.9 kmh WSW 15.2 mph24.5 kmh 30.15 in1021.0 mb 0.00 in0.0 mm 0.00 in0.0 mm 0.00 in0.0 mm
10:02 AM 68.2°F20.1°C 55.7°F13.2°C 64% 6.8 mph W10.9 kmh W 15.2 mph24.5 kmh 30.15 in1021.0 mb 0.00 in0.0 mm 0.00 in0.0 mm 0.00 in0.0 mm
10:08 AM 69.6°F20.9°C 56.1°F13.4°C 62% 6.1 mph SW9.8 kmh SW 11.6 mph18.7 kmh 30.15 in1021.0 mb 0.00 in0.0 mm 0.00 in0.0 mm 0.00 in0.0 mm
10:13 AM 70.5°F21.4°C 55.6°F13.1°C 59% 7.5 mph WSW12.1 kmh WSW 11.6 mph18.7 kmh 30.15 in1021.0 mb 0.00 in0.0 mm 0.00 in0.0 mm 0.00 in0.0 mm
10:19 AM 70.7°F21.5°C 54.8°F12.7°C 57% 7.3 mph WSW11.7 kmh WSW 11.6 mph18.7 kmh 30.15 in1021.0 mb 0.00 in0.0 mm 0.00 in0.0 mm 0.00 in0.0 mm
10:24 AM 71.9°F22.2°C 56.0°F13.3°C 57% 6.3 mph S10.1 kmh S 14.4 mph23.2 kmh 30.15 in1021.0 mb 0.00 in0.0 mm 0.00 in0.0 mm 0.00 in0.0 mm
10:29 AM 72.7°F22.6°C 54.6°F12.6°C 53% 6.8 mph SW10.9 kmh SW 14.4 mph23.2 kmh 30.15 in1021.0 mb 0.00 in0.0 mm 0.00 in0.0 mm 0.00 in0.0 mm
10:34 AM 72.8°F22.7°C 54.2°F12.3°C 52% 6.0 mph NW9.7 kmh NW 10.8 mph17.4 kmh 30.15 in1021.0 mb 0.00 in0.0 mm 0.00 in0.0 mm 0.00 in0.0 mm
10:39 AM 74.1°F23.4°C 54.9°F12.7°C 51% 6.8 mph SSW10.9 kmh SSW 8.6 mph13.8 kmh 30.15 in1021.0 mb 0.00 in0.0 mm 0.00 in0.0 mm 0.00 in0.0 mm
10:44 AM 74.1°F23.4°C 54.3°F12.4°C 50% 9.7 mph S15.6 kmh S 13.0 mph20.9 kmh 30.15 in1021.0 mb 0.00 in0.0 mm 0.00 in0.0 mm 0.00 in0.0 mm
10:50 AM 74.3°F23.5°C 53.9°F12.2°C 49% 5.7 mph SSW9.2 kmh SSW 13.0 mph20.9 kmh 30.15 in1021.0 mb 0.00 in0.0 mm 0.00 in0.0 mm 0.00 in0.0 mm
10:55 AM 74.3°F23.5°C 53.3°F11.8°C 48% 6.6 mph SW10.6 kmh SW 12.0 mph19.3 kmh 30.18 in1022.0 mb 0.00 in0.0 mm 0.00 in0.0 mm 0.00 in0.0 mm
11:00 AM 75.2°F24.0°C 52.9°F11.6°C 46% 6.3 mph S10.1 kmh S 12.0 mph19.3 kmh 30.18 in1022.0 mb 0.00 in0.0 mm 0.00 in0.0 mm 0.00 in0.0 mm
11:05 AM 75.7°F24.3°C 53.4°F11.9°C 46% 6.3 mph S10.1 kmh S 10.8 mph17.4 kmh 30.18 in1022.0 mb 0.00 in0.0 mm 0.00 in0.0 mm 0.00 in0.0 mm
11:10 AM 75.5°F24.2°C 52.6°F11.4°C 45% 8.1 mph WSW13.0 kmh WSW 15.2 mph24.5 kmh 30.18 in1022.0 mb 0.00 in0.0 mm 0.00 in0.0 mm 0.00 in0.0 mm
11:15 AM 74.6°F23.7°C 52.4°F11.3°C 46% 7.8 mph W12.6 kmh W 15.2 mph24.5 kmh 30.18 in1022.0 mb 0.00 in0.0 mm 0.00 in0.0 mm 0.00 in0.0 mm
11:20 AM 76.1°F24.5°C 53.8°F12.1°C 46% 6.1 mph SW9.8 kmh SW 15.2 mph24.5 kmh 30.18 in1022.0 mb 0.00 in0.0 mm 0.00 in0.0 mm 0.00 in0.0 mm
11:25 AM 77.7°F25.4°C 54.6°F12.6°C 45% 5.1 mph SSW8.2 kmh SSW 11.6 mph18.7 kmh 30.15 in1021.0 mb 0.00 in0.0 mm 0.00 in0.0 mm 0.00 in0.0 mm
11:31 AM 78.6°F25.9°C 54.1°F12.3°C 43% 4.9 mph S7.9 kmh S 11.6 mph18.7 kmh 30.15 in1021.0 mb 0.00 in0.0 mm 0.00 in0.0 mm 0.00 in0.0 mm
11:36 AM 78.1°F25.6°C 53.7°F12.1°C 43% 7.1 mph SSW11.4 kmh SSW 11.2 mph18.0 kmh 30.15 in1021.0 mb 0.00 in0.0 mm 0.00 in0.0 mm 0.00 in0.0 mm
11:42 AM 77.3°F25.2°C 53.0°F11.7°C 43% 6.6 mph W10.6 kmh W 10.8 mph17.4 kmh 30.15 in1021.0 mb 0.00 in0.0 mm 0.00 in0.0 mm 0.00 in0.0 mm
11:47 AM 78.4°F25.8°C 54.0°F12.2°C 43% 7.4 mph S11.9 kmh S 12.6 mph20.3 kmh 30.15 in1021.0 mb 0.00 in0.0 mm 0.00 in0.0 mm 0.00 in0.0 mm
11:53 AM 79.1°F26.2°C 53.2°F11.8°C 41% 7.3 mph S11.7 kmh S 12.6 mph20.3 kmh 30.15 in1021.0 mb 0.00 in0.0 mm 0.00 in0.0 mm 0.00 in0.0 mm
11:58 AM 79.3°F26.3°C 53.4°F11.9°C 41% 9.5 mph S15.3 kmh S 13.4 mph21.6 kmh 30.15 in1021.0 mb 0.00 in0.0 mm 0.00 in0.0 mm 0.00 in0.0 mm
12:04 PM 79.1°F26.2°C 53.2°F11.8°C 41% 8.7 mph S14.0 kmh S 12.0 mph19.3 kmh 30.15 in1021.0 mb 0.00 in0.0 mm 0.00 in0.0 mm 0.00 in0.0 mm
12:09 PM 79.1°F26.2°C 52.6°F11.4°C 40% 6.0 mph WSW9.7 kmh WSW 12.0 mph19.3 kmh 30.12 in1020.0 mb 0.00 in0.0 mm 0.00 in0.0 mm 0.00 in0.0 mm
12:14 PM 79.1°F26.2°C 52.6°F11.4°C 40% 9.4 mph WSW15.1 kmh WSW 17.0 mph27.4 kmh 30.12 in1020.0 mb 0.00 in0.0 mm 0.00 in0.0 mm 0.00 in0.0 mm
12:19 PM 78.6°F25.9°C 52.1°F11.2°C 40% 8.6 mph WSW13.8 kmh WSW 17.0 mph27.4 kmh 30.12 in1020.0 mb 0.00 in0.0 mm 0.00 in0.0 mm 0.00 in0.0 mm
12:24 PM 79.1°F26.2°C 52.6°F11.4°C 40% 5.4 mph WSW8.7 kmh WSW 16.2 mph26.1 kmh 30.12 in1020.0 mb 0.00 in0.0 mm 0.00 in0.0 mm 0.00 in0.0 mm
12:29 PM 79.7°F26.5°C 53.1°F11.7°C 40% 8.7 mph SW14.0 kmh SW 13.0 mph20.9 kmh 30.12 in1020.0 mb 0.00 in0.0 mm 0.00 in0.0 mm 0.00 in0.0 mm
12:34 PM 79.9°F26.6°C 52.6°F11.4°C 39% 8.4 mph SW13.5 kmh SW 13.0 mph20.9 kmh 30.12 in1020.0 mb 0.00 in0.0 mm 0.00 in0.0 mm 0.00 in0.0 mm
12:39 PM 79.7°F26.5°C 51.7°F10.9°C 38% 8.5 mph W13.7 kmh W 13.0 mph20.9 kmh 30.09 in1019.0 mb 0.00 in0.0 mm 0.00 in0.0 mm 0.00 in0.0 mm
12:46 PM 80.2°F26.8°C 52.1°F11.2°C 38% 7.3 mph WSW11.7 kmh WSW 13.0 mph20.9 kmh 30.09 in1019.0 mb 0.00 in0.0 mm 0.00 in0.0 mm 0.00 in0.0 mm
12:50 PM 80.8°F27.1°C 52.7°F11.5°C 38% 7.4 mph WSW11.9 kmh WSW 11.6 mph18.7 kmh 30.09 in1019.0 mb 0.00 in0.0 mm 0.00 in0.0 mm 0.00 in0.0 mm
12:56 PM 80.9°F27.2°C 52.0°F11.1°C 37% 9.6 mph SSW15.4 kmh SSW 14.4 mph23.2 kmh 30.09 in1019.0 mb 0.00 in0.0 mm 0.00 in0.0 mm 0.00 in0.0 mm
01:01 PM 81.3°F27.4°C 52.4°F11.3°C 37% 8.0 mph SW12.9 kmh SW 14.4 mph23.2 kmh 30.09 in1019.0 mb 0.00 in0.0 mm 0.00 in0.0 mm 0.00 in0.0 mm
01:06 PM 80.4°F26.9°C 52.3°F11.3°C 38% 9.9 mph WNW15.9 kmh WNW 14.8 mph23.8 kmh 30.09 in1019.0 mb 0.00 in0.0 mm 0.00 in0.0 mm 0.00 in0.0 mm
01:11 PM 80.2°F26.8°C 52.1°F11.2°C 38% 7.7 mph SW12.4 kmh SW 14.8 mph23.8 kmh 30.09 in1019.0 mb 0.00 in0.0 mm 0.00 in0.0 mm 0.00 in0.0 mm
01:16 PM 81.5°F27.5°C 53.3°F11.8°C 38% 7.6 mph SSW12.2 kmh SSW 12.6 mph20.3 kmh 30.09 in1019.0 mb 0.00 in0.0 mm 0.00 in0.0 mm 0.00 in0.0 mm
01:21 PM 81.7°F27.6°C 53.5°F11.9°C 38% 8.0 mph SSW12.9 kmh SSW 17.4 mph28.0 kmh 30.06 in1017.9 mb 0.00 in0.0 mm 0.00 in0.0 mm 0.00 in0.0 mm
01:28 PM 81.3°F27.4°C 52.4°F11.3°C 37% 10.8 mph SW17.4 kmh SW 17.4 mph28.0 kmh 30.06 in1017.9 mb 0.00 in0.0 mm 0.00 in0.0 mm 0.00 in0.0 mm
01:33 PM 80.2°F26.8°C 52.1°F11.2°C 38% 7.3 mph W11.7 kmh W 17.4 mph28.0 kmh 30.06 in1017.9 mb 0.00 in0.0 mm 0.00 in0.0 mm 0.00 in0.0 mm
01:38 PM 80.4°F26.9°C 52.3°F11.3°C 38% 6.9 mph SW11.1 kmh SW 12.6 mph20.3 kmh 30.09 in1019.0 mb 0.00 in0.0 mm 0.00 in0.0 mm 0.00 in0.0 mm
01:43 PM 81.7°F27.6°C 52.7°F11.5°C 37% 7.8 mph WSW12.6 kmh WSW 13.0 mph20.9 kmh 30.09 in1019.0 mb 0.00 in0.0 mm 0.00 in0.0 mm 0.00 in0.0 mm
01:48 PM 82.0°F27.8°C 53.0°F11.7°C 37% 9.0 mph SW14.5 kmh SW 15.2 mph24.5 kmh 30.09 in1019.0 mb 0.00 in0.0 mm 0.00 in0.0 mm 0.00 in0.0 mm
01:53 PM 82.4°F28.0°C 52.6°F11.4°C 36% 8.1 mph SSW13.0 kmh SSW 19.6 mph31.5 kmh 30.09 in1019.0 mb 0.00 in0.0 mm 0.00 in0.0 mm 0.00 in0.0 mm
01:59 PM 82.7°F28.2°C 52.1°F11.2°C 35% 9.1 mph S14.6 kmh S 19.6 mph31.5 kmh 30.09 in1019.0 mb 0.00 in0.0 mm 0.00 in0.0 mm 0.00 in0.0 mm
02:04 PM 82.6°F28.1°C 52.0°F11.1°C 35% 9.3 mph S15.0 kmh S 17.0 mph27.4 kmh 30.09 in1019.0 mb 0.00 in0.0 mm 0.00 in0.0 mm 0.00 in0.0 mm
02:09 PM 81.5°F27.5°C 51.8°F11.0°C 36% 12.6 mph S20.3 kmh S 17.0 mph27.4 kmh 30.09 in1019.0 mb 0.00 in0.0 mm 0.00 in0.0 mm 0.00 in0.0 mm
02:14 PM 82.0°F27.8°C 52.2°F11.2°C 36% 7.0 mph SW11.3 kmh SW 17.0 mph27.4 kmh 30.09 in1019.0 mb 0.00 in0.0 mm 0.00 in0.0 mm 0.00 in0.0 mm
02:19 PM 82.2°F27.9°C 51.6°F10.9°C 35% 7.7 mph SSW12.4 kmh SSW 12.0 mph19.3 kmh 30.09 in1019.0 mb 0.00 in0.0 mm 0.00 in0.0 mm 0.00 in0.0 mm
02:24 PM 83.1°F28.4°C 52.4°F11.3°C 35% 5.0 mph SW8.0 kmh SW 12.0 mph19.3 kmh 30.09 in1019.0 mb 0.00 in0.0 mm 0.00 in0.0 mm 0.00 in0.0 mm
02:29 PM 83.6°F28.7°C 52.9°F11.6°C 35% 7.0 mph SW11.3 kmh SW 12.0 mph19.3 kmh 30.09 in1019.0 mb 0.00 in0.0 mm 0.00 in0.0 mm 0.00 in0.0 mm
02:34 PM 83.5°F28.6°C 53.5°F11.9°C 36% 8.2 mph S13.2 kmh S 12.0 mph19.3 kmh 30.09 in1019.0 mb 0.00 in0.0 mm 0.00 in0.0 mm 0.00 in0.0 mm
02:39 PM 83.6°F28.7°C 52.9°F11.6°C 35% 6.7 mph SW10.8 kmh SW 12.0 mph19.3 kmh 30.09 in1019.0 mb 0.00 in0.0 mm 0.00 in0.0 mm 0.00 in0.0 mm
02:44 PM 83.1°F28.4°C 51.6°F10.9°C 34% 8.2 mph WSW13.2 kmh WSW 14.4 mph23.2 kmh 30.09 in1019.0 mb 0.00 in0.0 mm 0.00 in0.0 mm 0.00 in0.0 mm
02:51 PM 82.9°F28.3°C 51.4°F10.8°C 34% 14.0 mph S22.5 kmh S 20.2 mph32.5 kmh 30.06 in1017.9 mb 0.00 in0.0 mm 0.00 in0.0 mm 0.00 in0.0 mm
02:56 PM 81.8°F27.7°C 51.3°F10.7°C 35% 10.2 mph WNW16.4 kmh WNW 20.2 mph32.5 kmh 30.06 in1017.9 mb 0.00 in0.0 mm 0.00 in0.0 mm 0.00 in0.0 mm
03:01 PM 82.7°F28.2°C 52.1°F11.2°C 35% 8.5 mph SSW13.7 kmh SSW 14.8 mph23.8 kmh 30.06 in1017.9 mb 0.00 in0.0 mm 0.00 in0.0 mm 0.00 in0.0 mm
03:06 PM 83.3°F28.5°C 51.8°F11.0°C 34% 7.4 mph SW11.9 kmh SW 11.6 mph18.7 kmh 30.06 in1017.9 mb 0.00 in0.0 mm 0.00 in0.0 mm 0.00 in0.0 mm
03:11 PM 82.9°F28.3°C 52.2°F11.2°C 35% 9.0 mph SSW14.5 kmh SSW 15.2 mph24.5 kmh 30.06 in1017.9 mb 0.00 in0.0 mm 0.00 in0.0 mm 0.00 in0.0 mm
03:16 PM 82.0°F27.8°C 51.4°F10.8°C 35% 8.6 mph W13.8 kmh W 15.2 mph24.5 kmh 30.06 in1017.9 mb 0.00 in0.0 mm 0.00 in0.0 mm 0.00 in0.0 mm
03:21 PM 81.7°F27.6°C 51.2°F10.7°C 35% 7.4 mph SSW11.9 kmh SSW 12.0 mph19.3 kmh 30.03 in1016.9 mb 0.00 in0.0 mm 0.00 in0.0 mm 0.00 in0.0 mm
03:26 PM 81.8°F27.7°C 51.3°F10.7°C 35% 8.2 mph SSW13.2 kmh SSW 16.2 mph26.1 kmh 30.03 in1016.9 mb 0.00 in0.0 mm 0.00 in0.0 mm 0.00 in0.0 mm
03:31 PM 82.4°F28.0°C 51.8°F11.0°C 35% 7.1 mph SSW11.4 kmh SSW 16.2 mph26.1 kmh 30.03 in1016.9 mb 0.00 in0.0 mm 0.00 in0.0 mm 0.00 in0.0 mm
03:36 PM 83.8°F28.8°C 53.0°F11.7°C 35% 5.6 mph S9.0 kmh S 15.2 mph24.5 kmh 30.03 in1016.9 mb 0.00 in0.0 mm 0.00 in0.0 mm 0.00 in0.0 mm
03:41 PM 84.4°F29.1°C 52.8°F11.6°C 34% 6.9 mph SW11.1 kmh SW 10.8 mph17.4 kmh 30.03 in1016.9 mb 0.00 in0.0 mm 0.00 in0.0 mm 0.00 in0.0 mm
03:46 PM 83.6°F28.7°C 52.1°F11.2°C 34% 7.9 mph SSW12.7 kmh SSW 11.2 mph18.0 kmh 30.03 in1016.9 mb 0.00 in0.0 mm 0.00 in0.0 mm 0.00 in0.0 mm
03:53 PM 83.1°F28.4°C 51.6°F10.9°C 34% 9.3 mph S15.0 kmh S 14.8 mph23.8 kmh 30.03 in1016.9 mb 0.00 in0.0 mm 0.00 in0.0 mm 0.00 in0.0 mm
03:58 PM 83.1°F28.4°C 52.4°F11.3°C 35% 6.8 mph WSW10.9 kmh WSW 14.8 mph23.8 kmh 30.03 in1016.9 mb 0.00 in0.0 mm 0.00 in0.0 mm 0.00 in0.0 mm
04:03 PM 83.3°F28.5°C 51.8°F11.0°C 34% 7.9 mph SSW12.7 kmh SSW 11.6 mph18.7 kmh 30.03 in1016.9 mb 0.00 in0.0 mm 0.00 in0.0 mm 0.00 in0.0 mm
04:08 PM 82.7°F28.2°C 52.1°F11.2°C 35% 7.3 mph S11.7 kmh S 11.6 mph18.7 kmh 30.03 in1016.9 mb 0.00 in0.0 mm 0.00 in0.0 mm 0.00 in0.0 mm
04:14 PM 82.6°F28.1°C 52.0°F11.1°C 35% 8.7 mph W14.0 kmh W 12.0 mph19.3 kmh 30.03 in1016.9 mb 0.00 in0.0 mm 0.00 in0.0 mm 0.00 in0.0 mm
04:19 PM 82.2°F27.9°C 51.6°F10.9°C 35% 7.7 mph WSW12.4 kmh WSW 12.0 mph19.3 kmh 30.03 in1016.9 mb 0.00 in0.0 mm 0.00 in0.0 mm 0.00 in0.0 mm
04:24 PM 82.0°F27.8°C 51.4°F10.8°C 35% 8.6 mph WNW13.8 kmh WNW 11.2 mph18.0 kmh 30.00 in1015.9 mb 0.00 in0.0 mm 0.00 in0.0 mm 0.00 in0.0 mm
04:29 PM 82.0°F27.8°C 52.2°F11.2°C 36% 7.3 mph WSW11.7 kmh WSW 13.0 mph20.9 kmh 30.00 in1015.9 mb 0.00 in0.0 mm 0.00 in0.0 mm 0.00 in0.0 mm
04:34 PM 82.0°F27.8°C 52.2°F11.2°C 36% 9.4 mph WNW15.1 kmh WNW 13.0 mph20.9 kmh 30.00 in1015.9 mb 0.00 in0.0 mm 0.00 in0.0 mm 0.00 in0.0 mm
04:39 PM 82.4°F28.0°C 52.6°F11.4°C 36% 6.6 mph S10.6 kmh S 13.0 mph20.9 kmh 30.00 in1015.9 mb 0.00 in0.0 mm 0.00 in0.0 mm 0.00 in0.0 mm
04:45 PM 81.7°F27.6°C 52.0°F11.1°C 36% 8.1 mph SW13.0 kmh SW 13.0 mph20.9 kmh 30.00 in1015.9 mb 0.00 in0.0 mm 0.00 in0.0 mm 0.00 in0.0 mm
04:49 PM 80.6°F27.0°C 51.0°F10.6°C 36% 7.5 mph SW12.1 kmh SW 12.6 mph20.3 kmh 30.00 in1015.9 mb 0.00 in0.0 mm 0.00 in0.0 mm 0.00 in0.0 mm
04:55 PM 80.4°F26.9°C 51.6°F10.9°C 37% 8.4 mph S13.5 kmh S 13.8 mph22.2 kmh 30.03 in1016.9 mb 0.00 in0.0 mm 0.00 in0.0 mm 0.00 in0.0 mm
05:00 PM 80.6°F27.0°C 51.0°F10.6°C 36% 8.0 mph SSW12.9 kmh SSW 13.8 mph22.2 kmh 30.03 in1016.9 mb 0.00 in0.0 mm 0.00 in0.0 mm 0.00 in0.0 mm
05:05 PM 80.4°F26.9°C 50.8°F10.4°C 36% 5.7 mph SW9.2 kmh SW 11.6 mph18.7 kmh 30.03 in1016.9 mb 0.00 in0.0 mm 0.00 in0.0 mm 0.00 in0.0 mm
05:10 PM 80.2°F26.8°C 50.6°F10.3°C 36% 7.1 mph SW11.4 kmh SW 11.6 mph18.7 kmh 30.00 in1015.9 mb 0.00 in0.0 mm 0.00 in0.0 mm 0.00 in0.0 mm
05:16 PM 80.4°F26.9°C 50.8°F10.4°C 36% 6.0 mph WSW9.7 kmh WSW 11.6 mph18.7 kmh 30.00 in1015.9 mb 0.00 in0.0 mm 0.00 in0.0 mm 0.00 in0.0 mm
05:21 PM 80.2°F26.8°C 51.4°F10.8°C 37% 8.0 mph SW12.9 kmh SW 12.6 mph20.3 kmh 30.00 in1015.9 mb 0.00 in0.0 mm 0.00 in0.0 mm 0.00 in0.0 mm
05:26 PM 79.7°F26.5°C 50.9°F10.5°C 37% 8.0 mph W12.9 kmh W 12.6 mph20.3 kmh 30.06 in1017.9 mb 0.00 in0.0 mm 0.00 in0.0 mm 0.00 in0.0 mm
05:31 PM 79.3°F26.3°C 50.6°F10.3°C 37% 6.4 mph S10.3 kmh S 12.0 mph19.3 kmh 30.06 in1017.9 mb 0.00 in0.0 mm 0.00 in0.0 mm 0.00 in0.0 mm
05:36 PM 79.3°F26.3°C 50.6°F10.3°C 37% 6.3 mph SW10.1 kmh SW 12.0 mph19.3 kmh 30.03 in1016.9 mb 0.00 in0.0 mm 0.00 in0.0 mm 0.00 in0.0 mm
05:41 PM 79.3°F26.3°C 50.6°F10.3°C 37% 6.3 mph WSW10.1 kmh WSW 9.4 mph15.1 kmh 30.03 in1016.9 mb 0.00 in0.0 mm 0.00 in0.0 mm 0.00 in0.0 mm
05:46 PM 79.0°F26.1°C 50.3°F10.2°C 37% 6.0 mph SW9.7 kmh SW 9.8 mph15.8 kmh 30.03 in1016.9 mb 0.00 in0.0 mm 0.00 in0.0 mm 0.00 in0.0 mm
05:51 PM 79.0°F26.1°C 51.0°F10.6°C 38% 5.2 mph SSW8.4 kmh SSW 9.8 mph15.8 kmh 30.03 in1016.9 mb 0.00 in0.0 mm 0.00 in0.0 mm 0.00 in0.0 mm
05:57 PM 78.6°F25.9°C 50.7°F10.4°C 38% 5.9 mph SSW9.5 kmh SSW 9.8 mph15.8 kmh 30.03 in1016.9 mb 0.00 in0.0 mm 0.00 in0.0 mm 0.00 in0.0 mm
06:02 PM 78.2°F25.7°C 50.3°F10.2°C 38% 7.1 mph SW11.4 kmh SW 9.8 mph15.8 kmh 30.03 in1016.9 mb 0.00 in0.0 mm 0.00 in0.0 mm 0.00 in0.0 mm
06:08 PM 77.9°F25.5°C 50.8°F10.4°C 39% 6.6 mph S10.6 kmh S 9.4 mph15.1 kmh 30.06 in1017.9 mb 0.00 in0.0 mm 0.00 in0.0 mm 0.00 in0.0 mm
06:13 PM 77.3°F25.2°C 49.5°F9.7°C 38% 9.7 mph S15.6 kmh S 15.2 mph24.5 kmh 30.06 in1017.9 mb 0.00 in0.0 mm 0.00 in0.0 mm 0.00 in0.0 mm
06:19 PM 77.3°F25.2°C 50.2°F10.1°C 39% 6.4 mph SW10.3 kmh SW 15.2 mph24.5 kmh 30.06 in1017.9 mb 0.00 in0.0 mm 0.00 in0.0 mm 0.00 in0.0 mm
06:24 PM 77.5°F25.3°C 51.1°F10.6°C 40% 4.5 mph S7.2 kmh S 11.2 mph18.0 kmh 30.03 in1016.9 mb 0.00 in0.0 mm 0.00 in0.0 mm 0.00 in0.0 mm
06:30 PM 77.0°F25.0°C 50.0°F10.0°C 39% 6.8 mph SSW10.9 kmh SSW 11.2 mph18.0 kmh 30.03 in1016.9 mb 0.00 in0.0 mm 0.00 in0.0 mm 0.00 in0.0 mm
06:35 PM 76.3°F24.6°C 50.0°F10.0°C 40% 6.5 mph SW10.5 kmh SW 11.2 mph18.0 kmh 30.03 in1016.9 mb 0.00 in0.0 mm 0.00 in0.0 mm 0.00 in0.0 mm
06:41 PM 75.7°F24.3°C 50.2°F10.1°C 41% 5.2 mph SW8.4 kmh SW 9.4 mph15.1 kmh 30.00 in1015.9 mb 0.00 in0.0 mm 0.00 in0.0 mm 0.00 in0.0 mm
06:46 PM 75.5°F24.2°C 50.0°F10.0°C 41% 6.0 mph SW9.7 kmh SW 9.4 mph15.1 kmh 30.00 in1015.9 mb 0.00 in0.0 mm 0.00 in0.0 mm 0.00 in0.0 mm
06:51 PM 75.2°F24.0°C 49.7°F9.8°C 41% 5.1 mph S8.2 kmh S 8.0 mph12.9 kmh 30.00 in1015.9 mb 0.00 in0.0 mm 0.00 in0.0 mm 0.00 in0.0 mm
06:56 PM 74.8°F23.8°C 49.4°F9.7°C 41% 5.7 mph S9.2 kmh S 7.6 mph12.2 kmh 30.00 in1015.9 mb 0.00 in0.0 mm 0.00 in0.0 mm 0.00 in0.0 mm
07:01 PM 74.6°F23.7°C 49.9°F9.9°C 42% 6.1 mph SSW9.8 kmh SSW 7.6 mph12.2 kmh 30.00 in1015.9 mb 0.00 in0.0 mm 0.00 in0.0 mm 0.00 in0.0 mm
07:06 PM 74.5°F23.6°C 49.8°F9.9°C 42% 5.8 mph SW9.3 kmh SW 8.0 mph12.9 kmh 30.03 in1016.9 mb 0.00 in0.0 mm 0.00 in0.0 mm 0.00 in0.0 mm
07:12 PM 73.9°F23.3°C 49.2°F9.6°C 42% 5.0 mph S8.0 kmh S 8.0 mph12.9 kmh 30.03 in1016.9 mb 0.00 in0.0 mm 0.00 in0.0 mm 0.00 in0.0 mm
07:17 PM 73.7°F23.2°C 49.1°F9.5°C 42% 5.2 mph SW8.4 kmh SW 7.6 mph12.2 kmh 30.03 in1016.9 mb 0.00 in0.0 mm 0.00 in0.0 mm 0.00 in0.0 mm
07:22 PM 73.6°F23.1°C 49.0°F9.4°C 42% 5.3 mph SSW8.5 kmh SSW 7.6 mph12.2 kmh 30.00 in1015.9 mb 0.00 in0.0 mm 0.00 in0.0 mm 0.00 in0.0 mm
07:27 PM 73.6°F23.1°C 49.6°F9.8°C 43% 3.7 mph SSW6.0 kmh SSW 7.6 mph12.2 kmh 30.00 in1015.9 mb 0.00 in0.0 mm 0.00 in0.0 mm 0.00 in0.0 mm
07:32 PM 73.0°F22.8°C 49.1°F9.5°C 43% 3.8 mph SSW6.1 kmh SSW 6.8 mph10.9 kmh 30.00 in1015.9 mb 0.00 in0.0 mm 0.00 in0.0 mm 0.00 in0.0 mm
07:37 PM 72.5°F22.5°C 49.3°F9.6°C 44% 2.8 mph S4.5 kmh S 6.2 mph10.0 kmh 30.03 in1016.9 mb 0.00 in0.0 mm 0.00 in0.0 mm 0.00 in0.0 mm
07:42 PM 71.9°F22.2°C 48.7°F9.3°C 44% 3.9 mph SW6.3 kmh SW 6.8 mph10.9 kmh 30.03 in1016.9 mb 0.00 in0.0 mm 0.00 in0.0 mm 0.00 in0.0 mm
07:47 PM 71.8°F22.1°C 49.2°F9.6°C 45% 3.9 mph S6.3 kmh S 6.8 mph10.9 kmh 30.03 in1016.9 mb 0.00 in0.0 mm 0.00 in0.0 mm 0.00 in0.0 mm
07:52 PM 71.2°F21.8°C 48.7°F9.3°C 45% 2.2 mph SSW3.5 kmh SSW 6.8 mph10.9 kmh 30.03 in1016.9 mb 0.00 in0.0 mm 0.00 in0.0 mm 0.00 in0.0 mm
07:57 PM 70.7°F21.5°C 48.2°F9.0°C 45% Calm Calm 4.4 mph7.1 kmh 30.03 in1016.9 mb 0.00 in0.0 mm 0.00 in0.0 mm 0.00 in0.0 mm
08:03 PM 70.5°F21.4°C 48.7°F9.3°C 46% 2.7 mph S4.3 kmh S 5.8 mph9.3 kmh 30.03 in1016.9 mb 0.00 in0.0 mm 0.00 in0.0 mm 0.00 in0.0 mm
08:08 PM 70.1°F21.2°C 48.9°F9.4°C 47% 2.6 mph SSW4.2 kmh SSW 5.8 mph9.3 kmh 30.03 in1016.9 mb 0.00 in0.0 mm 0.00 in0.0 mm 0.00 in0.0 mm
08:15 PM 69.8°F21.0°C 48.6°F9.2°C 47% 2.5 mph SE4.0 kmh SE 4.4 mph7.1 kmh 30.03 in1016.9 mb 0.00 in0.0 mm 0.00 in0.0 mm 0.00 in0.0 mm
08:20 PM 69.2°F20.7°C 48.6°F9.2°C 48% Calm Calm 4.4 mph7.1 kmh 30.03 in1016.9 mb 0.00 in0.0 mm 0.00 in0.0 mm 0.00 in0.0 mm
08:26 PM 68.9°F20.5°C 48.4°F9.1°C 48% Calm Calm 2.6 mph4.2 kmh 30.03 in1016.9 mb 0.00 in0.0 mm 0.00 in0.0 mm 0.00 in0.0 mm
08:31 PM 68.5°F20.3°C 48.0°F8.9°C 48% Calm Calm -- 30.03 in1016.9 mb 0.00 in0.0 mm 0.00 in0.0 mm 0.00 in0.0 mm
08:36 PM 68.2°F20.1°C 48.3°F9.1°C 49% Calm Calm -- 30.06 in1017.9 mb 0.00 in0.0 mm 0.00 in0.0 mm 0.00 in0.0 mm
08:41 PM 67.8°F19.9°C 47.9°F8.8°C 49% Calm Calm -- 30.06 in1017.9 mb 0.00 in0.0 mm 0.00 in0.0 mm 0.00 in0.0 mm
08:46 PM 67.6°F19.8°C 48.3°F9.1°C 50% 2.2 mph ESE3.5 kmh ESE 2.6 mph4.2 kmh 30.06 in1017.9 mb 0.00 in0.0 mm 0.00 in0.0 mm 0.00 in0.0 mm
08:51 PM 67.3°F19.6°C 48.6°F9.2°C 51% Calm Calm 2.6 mph4.2 kmh 30.06 in1017.9 mb 0.00 in0.0 mm 0.00 in0.0 mm 0.00 in0.0 mm
08:58 PM 67.1°F19.5°C 48.9°F9.4°C 52% Calm Calm -- 30.06 in1017.9 mb 0.00 in0.0 mm 0.00 in0.0 mm 0.00 in0.0 mm
09:03 PM 67.1°F19.5°C 48.9°F9.4°C 52% Calm Calm -- 30.06 in1017.9 mb 0.00 in0.0 mm 0.00 in0.0 mm 0.00 in0.0 mm
09:08 PM 66.9°F19.4°C 49.3°F9.6°C 53% Calm Calm -- 30.06 in1017.9 mb 0.00 in0.0 mm 0.00 in0.0 mm 0.00 in0.0 mm
09:13 PM 66.5°F19.2°C 48.9°F9.4°C 53% Calm Calm -- 30.06 in1017.9 mb 0.00 in0.0 mm 0.00 in0.0 mm 0.00 in0.0 mm
09:18 PM 66.4°F19.1°C 49.3°F9.6°C 54% Calm Calm -- 30.06 in1017.9 mb 0.00 in0.0 mm 0.00 in0.0 mm 0.00 in0.0 mm
09:23 PM 66.2°F19.0°C 49.6°F9.8°C 55% Calm Calm -- 30.09 in1019.0 mb 0.00 in0.0 mm 0.00 in0.0 mm 0.00 in0.0 mm
09:28 PM 66.0°F18.9°C 49.4°F9.7°C 55% Calm Calm -- 30.09 in1019.0 mb 0.00 in0.0 mm 0.00 in0.0 mm 0.00 in0.0 mm
09:33 PM 65.8°F18.8°C 49.8°F9.9°C 56% Calm Calm -- 30.09 in1019.0 mb 0.00 in0.0 mm 0.00 in0.0 mm 0.00 in0.0 mm
09:38 PM 65.8°F18.8°C 49.8°F9.9°C 56% Calm Calm -- 30.09 in1019.0 mb 0.00 in0.0 mm 0.00 in0.0 mm 0.00 in0.0 mm
09:43 PM 65.6°F18.7°C 50.1°F10.1°C 57% Calm Calm -- 30.09 in1019.0 mb 0.00 in0.0 mm 0.00 in0.0 mm 0.00 in0.0 mm
09:51 PM 65.3°F18.5°C 49.8°F9.9°C 57% Calm Calm -- 30.09 in1019.0 mb 0.00 in0.0 mm 0.00 in0.0 mm 0.00 in0.0 mm
09:56 PM 65.1°F18.4°C 50.1°F10.1°C 58% Calm Calm -- 30.09 in1019.0 mb 0.00 in0.0 mm 0.00 in0.0 mm 0.00 in0.0 mm
10:01 PM 64.6°F18.1°C 50.1°F10.1°C 59% Calm Calm -- 30.09 in1019.0 mb 0.00 in0.0 mm 0.00 in0.0 mm 0.00 in0.0 mm
10:06 PM 64.2°F17.9°C 49.7°F9.8°C 59% Calm Calm -- 30.09 in1019.0 mb 0.00 in0.0 mm 0.00 in0.0 mm 0.00 in0.0 mm
10:12 PM 64.0°F17.8°C 50.4°F10.2°C 61% Calm Calm -- 30.09 in1019.0 mb 0.00 in0.0 mm 0.00 in0.0 mm 0.00 in0.0 mm
10:17 PM 63.8°F17.7°C 50.2°F10.1°C 61% Calm Calm -- 30.09 in1019.0 mb 0.00 in0.0 mm 0.00 in0.0 mm 0.00 in0.0 mm
10:22 PM 63.7°F17.6°C 50.6°F10.3°C 62% Calm Calm -- 30.09 in1019.0 mb 0.00 in0.0 mm 0.00 in0.0 mm 0.00 in0.0 mm
10:27 PM 63.3°F17.4°C 50.6°F10.3°C 63% Calm Calm -- 30.09 in1019.0 mb 0.00 in0.0 mm 0.00 in0.0 mm 0.00 in0.0 mm
10:32 PM 62.8°F17.1°C 50.6°F10.3°C 64% Calm Calm -- 30.09 in1019.0 mb 0.00 in0.0 mm 0.00 in0.0 mm 0.00 in0.0 mm
10:37 PM 62.6°F17.0°C 50.8°F10.4°C 65% Calm Calm -- 30.06 in1017.9 mb 0.00 in0.0 mm 0.00 in0.0 mm 0.00 in0.0 mm
10:42 PM 62.0°F16.7°C 50.6°F10.3°C 66% Calm Calm -- 30.06 in1017.9 mb 0.00 in0.0 mm 0.00 in0.0 mm 0.00 in0.0 mm
10:47 PM 61.7°F16.5°C 50.8°F10.4°C 67% Calm Calm -- 30.06 in1017.9 mb 0.00 in0.0 mm 0.00 in0.0 mm 0.00 in0.0 mm
10:52 PM 61.3°F16.3°C 50.4°F10.2°C 67% Calm Calm -- 30.06 in1017.9 mb 0.00 in0.0 mm 0.00 in0.0 mm 0.00 in0.0 mm
10:57 PM 61.0°F16.1°C 50.5°F10.3°C 68% Calm Calm -- 30.06 in1017.9 mb 0.00 in0.0 mm 0.00 in0.0 mm 0.00 in0.0 mm
11:03 PM 60.8°F16.0°C 50.7°F10.4°C 69% Calm Calm -- 30.06 in1017.9 mb 0.00 in0.0 mm 0.00 in0.0 mm 0.00 in0.0 mm
11:08 PM 60.6°F15.9°C 50.5°F10.3°C 69% Calm Calm -- 30.06 in1017.9 mb 0.00 in0.0 mm 0.00 in0.0 mm 0.00 in0.0 mm
11:13 PM 60.4°F15.8°C 50.7°F10.4°C 70% Calm Calm -- 30.06 in1017.9 mb 0.00 in0.0 mm 0.00 in0.0 mm 0.00 in0.0 mm
11:18 PM 60.2°F15.7°C 50.9°F10.5°C 71% Calm Calm -- 30.06 in1017.9 mb 0.00 in0.0 mm 0.00 in0.0 mm 0.00 in0.0 mm
11:25 PM 60.2°F15.7°C 50.9°F10.5°C 71% Calm Calm -- 30.06 in1017.9 mb 0.00 in0.0 mm 0.00 in0.0 mm 0.00 in0.0 mm
11:30 PM 60.1°F15.6°C 51.1°F10.6°C 72% Calm Calm -- 30.06 in1017.9 mb 0.00 in0.0 mm 0.00 in0.0 mm 0.00 in0.0 mm
11:35 PM 59.9°F15.5°C 51.3°F10.7°C 73% Calm Calm -- 30.06 in1017.9 mb 0.00 in0.0 mm 0.00 in0.0 mm 0.00 in0.0 mm
11:40 PM 59.9°F15.5°C 51.7°F10.9°C 74% Calm Calm -- 30.06 in1017.9 mb 0.00 in0.0 mm 0.00 in0.0 mm 0.00 in0.0 mm
11:45 PM 59.6°F15.3°C 51.3°F10.7°C 74% Calm Calm -- 30.06 in1017.9 mb 0.00 in0.0 mm 0.00 in0.0 mm 0.00 in0.0 mm
11:50 PM 59.4°F15.2°C 51.1°F10.6°C 74% Calm Calm -- 30.06 in1017.9 mb 0.00 in0.0 mm 0.00 in0.0 mm 0.00 in0.0 mm
11:55 PM 59.3°F15.2°C 51.4°F10.8°C 75% Calm Calm -- 30.06 in1017.9 mb 0.00 in0.0 mm 0.00 in0.0 mm 0.00 in0.0 mm